sensor_id;sensor_type;location;lat;lon;timestamp;P1;durP1;ratioP1;P2;durP2;ratioP2
48987;SDS011;34799;51.440;-2.534;2023-04-03T00:01:36;5.03;;;1.08;;
48987;SDS011;34799;51.440;-2.534;2023-04-03T00:04:16;8.55;;;1.25;;
48987;SDS011;34799;51.440;-2.534;2023-04-03T00:06:47;3.17;;;0.93;;
48987;SDS011;34799;51.440;-2.534;2023-04-03T00:09:14;6.10;;;0.93;;
48987;SDS011;34799;51.440;-2.534;2023-04-03T00:11:43;8.15;;;1.27;;
48987;SDS011;34799;51.440;-2.534;2023-04-03T00:14:12;8.65;;;1.23;;
48987;SDS011;34799;51.440;-2.534;2023-04-03T00:16:42;6.82;;;0.93;;
48987;SDS011;34799;51.440;-2.534;2023-04-03T00:19:11;6.20;;;1.20;;
48987;SDS011;34799;51.440;-2.534;2023-04-03T00:21:39;5.57;;;1.35;;
48987;SDS011;34799;51.440;-2.534;2023-04-03T00:24:09;7.95;;;1.60;;
48987;SDS011;34799;51.440;-2.534;2023-04-03T00:26:38;4.93;;;1.00;;
48987;SDS011;34799;51.440;-2.534;2023-04-03T00:29:06;6.85;;;1.40;;
48987;SDS011;34799;51.440;-2.534;2023-04-03T00:31:33;3.33;;;0.82;;
48987;SDS011;34799;51.440;-2.534;2023-04-03T00:34:00;5.38;;;1.00;;
48987;SDS011;34799;51.440;-2.534;2023-04-03T00:36:32;6.07;;;1.25;;
48987;SDS011;34799;51.440;-2.534;2023-04-03T00:38:59;9.32;;;1.65;;
48987;SDS011;34799;51.440;-2.534;2023-04-03T00:41:27;4.63;;;0.95;;
48987;SDS011;34799;51.440;-2.534;2023-04-03T00:43:59;8.38;;;1.92;;
48987;SDS011;34799;51.440;-2.534;2023-04-03T00:46:26;4.85;;;0.70;;
48987;SDS011;34799;51.440;-2.534;2023-04-03T00:48:54;5.55;;;0.90;;
48987;SDS011;34799;51.440;-2.534;2023-04-03T00:51:23;5.28;;;1.30;;
48987;SDS011;34799;51.440;-2.534;2023-04-03T00:53:55;6.68;;;1.20;;
48987;SDS011;34799;51.440;-2.534;2023-04-03T00:56:26;5.57;;;0.98;;
48987;SDS011;34799;51.440;-2.534;2023-04-03T00:58:59;6.72;;;0.90;;
48987;SDS011;34799;51.440;-2.534;2023-04-03T01:01:35;7.75;;;1.23;;
48987;SDS011;34799;51.440;-2.534;2023-04-03T01:04:26;3.92;;;1.20;;
48987;SDS011;34799;51.440;-2.534;2023-04-03T01:07:15;7.18;;;1.65;;
48987;SDS011;34799;51.440;-2.534;2023-04-03T01:09:48;3.42;;;1.00;;
48987;SDS011;34799;51.440;-2.534;2023-04-03T01:12:24;5.85;;;1.20;;
48987;SDS011;34799;51.440;-2.534;2023-04-03T01:15:00;2.95;;;1.38;;
48987;SDS011;34799;51.440;-2.534;2023-04-03T01:17:40;3.45;;;1.10;;
48987;SDS011;34799;51.440;-2.534;2023-04-03T01:22:52;8.48;;;1.38;;
48987;SDS011;34799;51.440;-2.534;2023-04-03T01:25:44;5.30;;;1.58;;
48987;SDS011;34799;51.440;-2.534;2023-04-03T01:28:17;5.10;;;1.38;;
48987;SDS011;34799;51.440;-2.534;2023-04-03T01:30:58;7.47;;;1.67;;
48987;SDS011;34799;51.440;-2.534;2023-04-03T01:33:44;8.63;;;2.38;;
48987;SDS011;34799;51.440;-2.534;2023-04-03T01:36:17;6.95;;;1.80;;
48987;SDS011;34799;51.440;-2.534;2023-04-03T01:38:48;7.43;;;1.77;;
48987;SDS011;34799;51.440;-2.534;2023-04-03T01:41:16;6.15;;;1.60;;
48987;SDS011;34799;51.440;-2.534;2023-04-03T01:43:49;8.35;;;1.52;;
48987;SDS011;34799;51.440;-2.534;2023-04-03T01:46:17;5.50;;;1.40;;
48987;SDS011;34799;51.440;-2.534;2023-04-03T01:48:51;5.05;;;1.58;;
48987;SDS011;34799;51.440;-2.534;2023-04-03T01:51:19;4.70;;;1.40;;
48987;SDS011;34799;51.440;-2.534;2023-04-03T01:53:46;10.10;;;1.40;;
48987;SDS011;34799;51.440;-2.534;2023-04-03T01:56:14;6.03;;;1.50;;
48987;SDS011;34799;51.440;-2.534;2023-04-03T01:58:42;3.15;;;0.95;;
48987;SDS011;34799;51.440;-2.534;2023-04-03T02:01:10;11.70;;;1.80;;
48987;SDS011;34799;51.440;-2.534;2023-04-03T02:03:38;2.97;;;1.02;;
48987;SDS011;34799;51.440;-2.534;2023-04-03T02:06:06;8.15;;;1.63;;
48987;SDS011;34799;51.440;-2.534;2023-04-03T02:08:33;6.57;;;1.20;;
48987;SDS011;34799;51.440;-2.534;2023-04-03T02:11:02;5.55;;;1.33;;
48987;SDS011;34799;51.440;-2.534;2023-04-03T02:13:30;5.57;;;1.05;;
48987;SDS011;34799;51.440;-2.534;2023-04-03T02:15:59;8.10;;;1.58;;
48987;SDS011;34799;51.440;-2.534;2023-04-03T02:18:34;7.72;;;1.15;;
48987;SDS011;34799;51.440;-2.534;2023-04-03T02:21:06;4.07;;;1.33;;
48987;SDS011;34799;51.440;-2.534;2023-04-03T02:23:34;6.60;;;1.27;;
48987;SDS011;34799;51.440;-2.534;2023-04-03T02:26:07;7.40;;;1.55;;
48987;SDS011;34799;51.440;-2.534;2023-04-03T02:28:44;8.73;;;1.25;;
48987;SDS011;34799;51.440;-2.534;2023-04-03T02:31:15;4.80;;;1.58;;
48987;SDS011;34799;51.440;-2.534;2023-04-03T02:33:47;5.57;;;1.52;;
48987;SDS011;34799;51.440;-2.534;2023-04-03T02:36:18;7.43;;;1.70;;
48987;SDS011;34799;51.440;-2.534;2023-04-03T02:38:51;7.05;;;1.70;;
48987;SDS011;34799;51.440;-2.534;2023-04-03T02:41:19;7.68;;;1.80;;
48987;SDS011;34799;51.440;-2.534;2023-04-03T02:47:27;8.52;;;1.02;;
48987;SDS011;34799;51.440;-2.534;2023-04-03T02:49:54;4.80;;;1.20;;
48987;SDS011;34799;51.440;-2.534;2023-04-03T02:52:34;4.28;;;1.45;;
48987;SDS011;34799;51.440;-2.534;2023-04-03T02:55:02;7.15;;;1.23;;
48987;SDS011;34799;51.440;-2.534;2023-04-03T02:57:30;3.85;;;1.25;;
48987;SDS011;34799;51.440;-2.534;2023-04-03T02:59:58;3.00;;;1.30;;
48987;SDS011;34799;51.440;-2.534;2023-04-03T03:02:28;4.43;;;1.40;;
48987;SDS011;34799;51.440;-2.534;2023-04-03T03:04:55;6.80;;;1.20;;
48987;SDS011;34799;51.440;-2.534;2023-04-03T03:07:23;7.10;;;1.30;;
48987;SDS011;34799;51.440;-2.534;2023-04-03T03:09:50;9.40;;;1.10;;
48987;SDS011;34799;51.440;-2.534;2023-04-03T03:12:21;6.75;;;1.10;;
48987;SDS011;34799;51.440;-2.534;2023-04-03T03:14:50;4.13;;;1.35;;
48987;SDS011;34799;51.440;-2.534;2023-04-03T03:17:18;5.95;;;1.13;;
48987;SDS011;34799;51.440;-2.534;2023-04-03T03:19:45;3.78;;;1.13;;
48987;SDS011;34799;51.440;-2.534;2023-04-03T03:22:17;4.88;;;1.02;;
48987;SDS011;34799;51.440;-2.534;2023-04-03T03:24:45;11.98;;;1.33;;
48987;SDS011;34799;51.440;-2.534;2023-04-03T03:27:12;8.25;;;1.85;;
48987;SDS011;34799;51.440;-2.534;2023-04-03T03:29:40;5.70;;;1.10;;
48987;SDS011;34799;51.440;-2.534;2023-04-03T03:32:08;6.75;;;1.20;;
48987;SDS011;34799;51.440;-2.534;2023-04-03T03:34:38;5.53;;;1.23;;
48987;SDS011;34799;51.440;-2.534;2023-04-03T03:37:06;5.45;;;1.02;;
48987;SDS011;34799;51.440;-2.534;2023-04-03T03:39:35;3.60;;;1.25;;
48987;SDS011;34799;51.440;-2.534;2023-04-03T03:42:03;5.18;;;1.00;;
48987;SDS011;34799;51.440;-2.534;2023-04-03T03:44:31;3.30;;;1.30;;
48987;SDS011;34799;51.440;-2.534;2023-04-03T03:46:58;6.57;;;1.30;;
48987;SDS011;34799;51.440;-2.534;2023-04-03T03:49:29;7.47;;;1.27;;
48987;SDS011;34799;51.440;-2.534;2023-04-03T03:51:56;7.88;;;1.38;;
48987;SDS011;34799;51.440;-2.534;2023-04-03T03:54:24;7.25;;;1.10;;
48987;SDS011;34799;51.440;-2.534;2023-04-03T03:56:51;5.22;;;0.95;;
48987;SDS011;34799;51.440;-2.534;2023-04-03T03:59:22;7.07;;;1.25;;
48987;SDS011;34799;51.440;-2.534;2023-04-03T04:01:50;5.43;;;1.40;;
48987;SDS011;34799;51.440;-2.534;2023-04-03T04:04:22;7.32;;;2.13;;
48987;SDS011;34799;51.440;-2.534;2023-04-03T04:06:51;7.65;;;1.60;;
48987;SDS011;34799;51.440;-2.534;2023-04-03T04:09:20;5.75;;;1.02;;
48987;SDS011;34799;51.440;-2.534;2023-04-03T04:11:48;3.83;;;1.33;;
48987;SDS011;34799;51.440;-2.534;2023-04-03T04:14:17;8.98;;;1.65;;
48987;SDS011;34799;51.440;-2.534;2023-04-03T04:16:49;8.05;;;1.45;;
48987;SDS011;34799;51.440;-2.534;2023-04-03T04:19:22;2.67;;;0.95;;
48987;SDS011;34799;51.440;-2.534;2023-04-03T04:21:53;9.93;;;1.30;;
48987;SDS011;34799;51.440;-2.534;2023-04-03T04:24:21;20.20;;;1.30;;
48987;SDS011;34799;51.440;-2.534;2023-04-03T04:26:52;9.07;;;2.13;;
48987;SDS011;34799;51.440;-2.534;2023-04-03T04:29:21;3.88;;;0.88;;
48987;SDS011;34799;51.440;-2.534;2023-04-03T04:31:51;5.72;;;1.13;;
48987;SDS011;34799;51.440;-2.534;2023-04-03T04:34:21;5.18;;;1.00;;
48987;SDS011;34799;51.440;-2.534;2023-04-03T04:36:49;4.45;;;1.00;;
48987;SDS011;34799;51.440;-2.534;2023-04-03T04:39:17;6.28;;;1.17;;
48987;SDS011;34799;51.440;-2.534;2023-04-03T04:41:45;6.65;;;1.48;;
48987;SDS011;34799;51.440;-2.534;2023-04-03T04:44:12;6.20;;;1.08;;
48987;SDS011;34799;51.440;-2.534;2023-04-03T04:46:42;7.28;;;1.77;;
48987;SDS011;34799;51.440;-2.534;2023-04-03T04:49:10;4.93;;;1.02;;
48987;SDS011;34799;51.440;-2.534;2023-04-03T04:51:40;4.95;;;1.30;;
48987;SDS011;34799;51.440;-2.534;2023-04-03T04:54:17;6.90;;;1.58;;
48987;SDS011;34799;51.440;-2.534;2023-04-03T04:56:47;6.95;;;1.67;;
48987;SDS011;34799;51.440;-2.534;2023-04-03T04:59:17;5.70;;;1.30;;
48987;SDS011;34799;51.440;-2.534;2023-04-03T05:01:48;5.22;;;1.60;;
48987;SDS011;34799;51.440;-2.534;2023-04-03T05:04:16;6.63;;;2.15;;
48987;SDS011;34799;51.440;-2.534;2023-04-03T05:06:52;9.10;;;1.48;;
48987;SDS011;34799;51.440;-2.534;2023-04-03T05:09:26;7.93;;;1.42;;
48987;SDS011;34799;51.440;-2.534;2023-04-03T05:11:58;4.70;;;1.25;;
48987;SDS011;34799;51.440;-2.534;2023-04-03T05:14:32;5.13;;;0.95;;
48987;SDS011;34799;51.440;-2.534;2023-04-03T05:17:06;5.82;;;1.50;;
48987;SDS011;34799;51.440;-2.534;2023-04-03T05:19:38;7.82;;;1.48;;
48987;SDS011;34799;51.440;-2.534;2023-04-03T05:22:07;4.65;;;1.25;;
48987;SDS011;34799;51.440;-2.534;2023-04-03T05:24:37;4.40;;;1.40;;
48987;SDS011;34799;51.440;-2.534;2023-04-03T05:27:12;7.90;;;1.80;;
48987;SDS011;34799;51.440;-2.534;2023-04-03T05:29:46;6.88;;;1.60;;
48987;SDS011;34799;51.440;-2.534;2023-04-03T05:32:22;5.10;;;1.10;;
48987;SDS011;34799;51.440;-2.534;2023-04-03T05:34:59;6.80;;;1.10;;
48987;SDS011;34799;51.440;-2.534;2023-04-03T05:37:27;6.80;;;1.42;;
48987;SDS011;34799;51.440;-2.534;2023-04-03T05:40:03;9.63;;;1.92;;
48987;SDS011;34799;51.440;-2.534;2023-04-03T05:42:35;6.55;;;1.40;;
48987;SDS011;34799;51.440;-2.534;2023-04-03T05:45:03;7.32;;;1.48;;
48987;SDS011;34799;51.440;-2.534;2023-04-03T05:47:32;4.68;;;1.60;;
48987;SDS011;34799;51.440;-2.534;2023-04-03T05:50:00;5.72;;;1.75;;
48987;SDS011;34799;51.440;-2.534;2023-04-03T05:52:33;6.47;;;1.63;;
48987;SDS011;34799;51.440;-2.534;2023-04-03T05:55:08;6.75;;;1.50;;
48987;SDS011;34799;51.440;-2.534;2023-04-03T05:57:36;4.97;;;1.77;;
48987;SDS011;34799;51.440;-2.534;2023-04-03T06:00:04;4.97;;;1.83;;
48987;SDS011;34799;51.440;-2.534;2023-04-03T06:02:39;11.10;;;2.20;;
48987;SDS011;34799;51.440;-2.534;2023-04-03T06:05:14;6.72;;;1.35;;
48987;SDS011;34799;51.440;-2.534;2023-04-03T06:07:46;5.88;;;1.70;;
48987;SDS011;34799;51.440;-2.534;2023-04-03T06:10:24;5.80;;;1.52;;
48987;SDS011;34799;51.440;-2.534;2023-04-03T06:12:51;5.13;;;1.15;;
48987;SDS011;34799;51.440;-2.534;2023-04-03T06:15:19;7.18;;;1.15;;
48987;SDS011;34799;51.440;-2.534;2023-04-03T06:17:50;2.40;;;1.20;;
48987;SDS011;34799;51.440;-2.534;2023-04-03T06:20:21;6.18;;;0.90;;
48987;SDS011;34799;51.440;-2.534;2023-04-03T06:22:55;8.95;;;1.73;;
48987;SDS011;34799;51.440;-2.534;2023-04-03T06:25:24;5.65;;;1.25;;
48987;SDS011;34799;51.440;-2.534;2023-04-03T06:27:52;6.45;;;1.45;;
48987;SDS011;34799;51.440;-2.534;2023-04-03T06:30:22;9.52;;;1.15;;
48987;SDS011;34799;51.440;-2.534;2023-04-03T06:32:51;10.10;;;1.75;;
48987;SDS011;34799;51.440;-2.534;2023-04-03T06:35:19;5.63;;;1.00;;
48987;SDS011;34799;51.440;-2.534;2023-04-03T06:37:49;6.55;;;1.40;;
48987;SDS011;34799;51.440;-2.534;2023-04-03T06:40:19;3.80;;;1.55;;
48987;SDS011;34799;51.440;-2.534;2023-04-03T06:42:49;7.38;;;1.52;;
48987;SDS011;34799;51.440;-2.534;2023-04-03T06:45:21;10.07;;;1.70;;
48987;SDS011;34799;51.440;-2.534;2023-04-03T06:47:49;12.73;;;2.55;;
48987;SDS011;34799;51.440;-2.534;2023-04-03T06:50:17;5.40;;;1.30;;
48987;SDS011;34799;51.440;-2.534;2023-04-03T06:52:45;8.27;;;1.45;;
48987;SDS011;34799;51.440;-2.534;2023-04-03T06:55:14;7.20;;;1.38;;
48987;SDS011;34799;51.440;-2.534;2023-04-03T06:57:41;9.02;;;1.55;;
48987;SDS011;34799;51.440;-2.534;2023-04-03T07:00:08;5.68;;;1.33;;
48987;SDS011;34799;51.440;-2.534;2023-04-03T07:02:37;5.63;;;1.83;;
48987;SDS011;34799;51.440;-2.534;2023-04-03T07:05:04;4.43;;;1.48;;
48987;SDS011;34799;51.440;-2.534;2023-04-03T07:07:33;7.35;;;1.92;;
48987;SDS011;34799;51.440;-2.534;2023-04-03T07:10:01;4.15;;;1.60;;
48987;SDS011;34799;51.440;-2.534;2023-04-03T07:12:29;7.10;;;1.60;;
48987;SDS011;34799;51.440;-2.534;2023-04-03T07:14:57;3.63;;;1.40;;
48987;SDS011;34799;51.440;-2.534;2023-04-03T07:17:26;6.35;;;1.50;;
48987;SDS011;34799;51.440;-2.534;2023-04-03T07:19:54;11.63;;;2.38;;
48987;SDS011;34799;51.440;-2.534;2023-04-03T07:22:22;9.60;;;1.75;;
48987;SDS011;34799;51.440;-2.534;2023-04-03T07:24:51;7.95;;;1.73;;
48987;SDS011;34799;51.440;-2.534;2023-04-03T07:27:19;6.30;;;1.63;;
48987;SDS011;34799;51.440;-2.534;2023-04-03T07:29:47;9.38;;;1.92;;
48987;SDS011;34799;51.440;-2.534;2023-04-03T07:32:17;7.90;;;1.75;;
48987;SDS011;34799;51.440;-2.534;2023-04-03T07:34:49;7.05;;;1.60;;
48987;SDS011;34799;51.440;-2.534;2023-04-03T07:37:17;12.27;;;2.80;;
48987;SDS011;34799;51.440;-2.534;2023-04-03T07:39:53;11.20;;;2.15;;
48987;SDS011;34799;51.440;-2.534;2023-04-03T07:42:29;6.78;;;1.95;;
48987;SDS011;34799;51.440;-2.534;2023-04-03T07:45:02;6.03;;;1.80;;
48987;SDS011;34799;51.440;-2.534;2023-04-03T07:47:33;11.77;;;1.85;;
48987;SDS011;34799;51.440;-2.534;2023-04-03T07:50:10;6.30;;;1.58;;
48987;SDS011;34799;51.440;-2.534;2023-04-03T07:52:38;7.82;;;1.60;;
48987;SDS011;34799;51.440;-2.534;2023-04-03T07:55:16;6.97;;;1.50;;
48987;SDS011;34799;51.440;-2.534;2023-04-03T07:57:59;7.68;;;1.38;;
48987;SDS011;34799;51.440;-2.534;2023-04-03T08:00:27;8.00;;;1.50;;
48987;SDS011;34799;51.440;-2.534;2023-04-03T08:02:56;5.57;;;1.30;;
48987;SDS011;34799;51.440;-2.534;2023-04-03T08:05:26;3.42;;;0.95;;
48987;SDS011;34799;51.440;-2.534;2023-04-03T08:08:01;10.48;;;1.58;;
48987;SDS011;34799;51.440;-2.534;2023-04-03T08:10:33;7.28;;;1.33;;
48987;SDS011;34799;51.440;-2.534;2023-04-03T08:13:08;7.80;;;1.45;;
48987;SDS011;34799;51.440;-2.534;2023-04-03T08:15:43;11.93;;;1.10;;
48987;SDS011;34799;51.440;-2.534;2023-04-03T08:18:14;4.90;;;1.13;;
48987;SDS011;34799;51.440;-2.534;2023-04-03T08:20:44;10.55;;;2.08;;
48987;SDS011;34799;51.440;-2.534;2023-04-03T08:23:21;6.03;;;1.23;;
48987;SDS011;34799;51.440;-2.534;2023-04-03T08:25:49;7.03;;;1.10;;
48987;SDS011;34799;51.440;-2.534;2023-04-03T08:28:31;7.60;;;1.60;;
48987;SDS011;34799;51.440;-2.534;2023-04-03T08:31:02;2.75;;;0.80;;
48987;SDS011;34799;51.440;-2.534;2023-04-03T08:33:34;7.57;;;1.00;;
48987;SDS011;34799;51.440;-2.534;2023-04-03T08:36:18;7.53;;;0.65;;
48987;SDS011;34799;51.440;-2.534;2023-04-03T08:38:49;6.03;;;0.77;;
48987;SDS011;34799;51.440;-2.534;2023-04-03T08:49:44;4.32;;;0.60;;
48987;SDS011;34799;51.440;-2.534;2023-04-03T08:52:18;7.80;;;0.68;;
48987;SDS011;34799;51.440;-2.534;2023-04-03T08:55:27;7.05;;;0.50;;
48987;SDS011;34799;51.440;-2.534;2023-04-03T08:58:07;7.43;;;0.70;;
48987;SDS011;34799;51.440;-2.534;2023-04-03T09:01:02;8.30;;;0.98;;
48987;SDS011;34799;51.440;-2.534;2023-04-03T09:03:52;6.88;;;0.95;;
48987;SDS011;34799;51.440;-2.534;2023-04-03T09:06:49;9.00;;;1.13;;
48987;SDS011;34799;51.440;-2.534;2023-04-03T09:09:35;5.22;;;0.90;;
48987;SDS011;34799;51.440;-2.534;2023-04-03T09:12:25;7.82;;;0.77;;
48987;SDS011;34799;51.440;-2.534;2023-04-03T09:15:02;6.50;;;0.88;;
48987;SDS011;34799;51.440;-2.534;2023-04-03T09:18:16;7.80;;;1.08;;
48987;SDS011;34799;51.440;-2.534;2023-04-03T09:23:42;3.03;;;0.73;;
48987;SDS011;34799;51.440;-2.534;2023-04-03T09:26:19;5.60;;;1.95;;
48987;SDS011;34799;51.440;-2.534;2023-04-03T09:32:26;7.32;;;1.13;;
48987;SDS011;34799;51.440;-2.534;2023-04-03T09:35:15;6.10;;;1.38;;
48987;SDS011;34799;51.440;-2.534;2023-04-03T09:37:58;6.25;;;1.63;;
48987;SDS011;34799;51.440;-2.534;2023-04-03T09:40:32;7.47;;;1.98;;
48987;SDS011;34799;51.440;-2.534;2023-04-03T09:45:54;4.28;;;1.08;;
48987;SDS011;34799;51.440;-2.534;2023-04-03T09:51:32;7.40;;;1.90;;
48987;SDS011;34799;51.440;-2.534;2023-04-03T09:57:20;9.82;;;1.48;;
48987;SDS011;34799;51.440;-2.534;2023-04-03T09:59:57;5.63;;;1.52;;
48987;SDS011;34799;51.440;-2.534;2023-04-03T10:02:37;6.00;;;1.35;;
48987;SDS011;34799;51.440;-2.534;2023-04-03T10:09:04;4.15;;;1.60;;
48987;SDS011;34799;51.440;-2.534;2023-04-03T10:20:47;8.10;;;1.85;;
48987;SDS011;34799;51.440;-2.534;2023-04-03T10:23:17;8.15;;;1.80;;
48987;SDS011;34799;51.440;-2.534;2023-04-03T10:28:29;7.93;;;1.83;;
48987;SDS011;34799;51.440;-2.534;2023-04-03T10:54:19;6.55;;;1.40;;
48987;SDS011;34799;51.440;-2.534;2023-04-03T10:57:01;7.00;;;2.10;;
48987;SDS011;34799;51.440;-2.534;2023-04-03T10:59:50;8.65;;;2.22;;
48987;SDS011;34799;51.440;-2.534;2023-04-03T11:05:17;7.65;;;1.85;;
48987;SDS011;34799;51.440;-2.534;2023-04-03T11:07:55;7.13;;;1.70;;
48987;SDS011;34799;51.440;-2.534;2023-04-03T11:15:58;6.32;;;2.00;;
48987;SDS011;34799;51.440;-2.534;2023-04-03T11:21:32;5.57;;;2.03;;
48987;SDS011;34799;51.440;-2.534;2023-04-03T11:24:17;4.53;;;1.38;;
48987;SDS011;34799;51.440;-2.534;2023-04-03T11:26:54;11.20;;;1.40;;
48987;SDS011;34799;51.440;-2.534;2023-04-03T11:29:35;6.45;;;1.45;;
48987;SDS011;34799;51.440;-2.534;2023-04-03T11:32:09;8.05;;;1.75;;
48987;SDS011;34799;51.440;-2.534;2023-04-03T11:34:57;8.40;;;2.00;;
48987;SDS011;34799;51.440;-2.534;2023-04-03T11:37:43;5.75;;;1.63;;
48987;SDS011;34799;51.440;-2.534;2023-04-03T11:40:47;5.80;;;1.48;;
48987;SDS011;34799;51.440;-2.534;2023-04-03T11:46:06;3.80;;;1.73;;
48987;SDS011;34799;51.440;-2.534;2023-04-03T11:53:46;4.00;;;1.40;;
48987;SDS011;34799;51.440;-2.534;2023-04-03T12:01:44;2.88;;;1.17;;
48987;SDS011;34799;51.440;-2.534;2023-04-03T12:04:25;4.22;;;1.85;;
48987;SDS011;34799;51.440;-2.534;2023-04-03T12:07:02;4.88;;;1.65;;
48987;SDS011;34799;51.440;-2.534;2023-04-03T12:18:37;3.83;;;2.15;;
48987;SDS011;34799;51.440;-2.534;2023-04-03T12:21:13;6.63;;;2.42;;
48987;SDS011;34799;51.440;-2.534;2023-04-03T12:29:42;11.43;;;2.65;;
48987;SDS011;34799;51.440;-2.534;2023-04-03T12:32:41;6.03;;;1.73;;
48987;SDS011;34799;51.440;-2.534;2023-04-03T12:44:46;4.72;;;1.55;;
48987;SDS011;34799;51.440;-2.534;2023-04-03T12:47:43;6.72;;;2.10;;
48987;SDS011;34799;51.440;-2.534;2023-04-03T12:50:30;9.38;;;3.05;;
48987;SDS011;34799;51.440;-2.534;2023-04-03T12:53:18;5.45;;;1.80;;
48987;SDS011;34799;51.440;-2.534;2023-04-03T12:56:20;8.10;;;2.03;;
48987;SDS011;34799;51.440;-2.534;2023-04-03T13:01:56;6.45;;;1.60;;
48987;SDS011;34799;51.440;-2.534;2023-04-03T13:04:50;4.35;;;2.30;;
48987;SDS011;34799;51.440;-2.534;2023-04-03T13:07:35;6.60;;;2.10;;
48987;SDS011;34799;51.440;-2.534;2023-04-03T13:10:18;5.78;;;1.60;;
48987;SDS011;34799;51.440;-2.534;2023-04-03T13:12:56;6.10;;;1.83;;
48987;SDS011;34799;51.440;-2.534;2023-04-03T13:15:42;4.85;;;1.83;;
48987;SDS011;34799;51.440;-2.534;2023-04-03T13:18:29;6.50;;;1.77;;
48987;SDS011;34799;51.440;-2.534;2023-04-03T13:21:16;6.80;;;2.78;;
48987;SDS011;34799;51.440;-2.534;2023-04-03T13:24:08;7.35;;;2.10;;
48987;SDS011;34799;51.440;-2.534;2023-04-03T13:26:43;4.90;;;1.77;;
48987;SDS011;34799;51.440;-2.534;2023-04-03T13:29:27;4.82;;;1.70;;
48987;SDS011;34799;51.440;-2.534;2023-04-03T13:32:05;8.75;;;2.10;;
48987;SDS011;34799;51.440;-2.534;2023-04-03T13:34:38;6.40;;;2.58;;
48987;SDS011;34799;51.440;-2.534;2023-04-03T13:37:26;5.40;;;2.63;;
48987;SDS011;34799;51.440;-2.534;2023-04-03T13:42:36;7.38;;;2.55;;
48987;SDS011;34799;51.440;-2.534;2023-04-03T13:45:25;5.32;;;2.28;;
48987;SDS011;34799;51.440;-2.534;2023-04-03T13:48:21;5.15;;;2.33;;
48987;SDS011;34799;51.440;-2.534;2023-04-03T13:53:30;5.40;;;2.53;;
48987;SDS011;34799;51.440;-2.534;2023-04-03T13:59:04;4.47;;;2.70;;
48987;SDS011;34799;51.440;-2.534;2023-04-03T14:01:52;8.15;;;2.60;;
48987;SDS011;34799;51.440;-2.534;2023-04-03T14:07:15;7.28;;;2.72;;
48987;SDS011;34799;51.440;-2.534;2023-04-03T14:09:46;5.15;;;2.75;;
48987;SDS011;34799;51.440;-2.534;2023-04-03T14:12:21;6.05;;;2.97;;
48987;SDS011;34799;51.440;-2.534;2023-04-03T14:15:19;6.63;;;3.03;;
48987;SDS011;34799;51.440;-2.534;2023-04-03T14:17:52;6.70;;;3.33;;
48987;SDS011;34799;51.440;-2.534;2023-04-03T14:20:38;6.32;;;3.10;;
48987;SDS011;34799;51.440;-2.534;2023-04-03T14:23:09;7.47;;;3.20;;
48987;SDS011;34799;51.440;-2.534;2023-04-03T14:29:17;8.93;;;2.90;;
48987;SDS011;34799;51.440;-2.534;2023-04-03T14:32:29;6.15;;;2.42;;
48987;SDS011;34799;51.440;-2.534;2023-04-03T14:35:10;5.88;;;2.78;;
48987;SDS011;34799;51.440;-2.534;2023-04-03T14:37:44;7.50;;;3.38;;
48987;SDS011;34799;51.440;-2.534;2023-04-03T14:40:18;7.97;;;3.00;;
48987;SDS011;34799;51.440;-2.534;2023-04-03T14:42:48;5.63;;;3.13;;
48987;SDS011;34799;51.440;-2.534;2023-04-03T14:45:32;5.18;;;2.90;;
48987;SDS011;34799;51.440;-2.534;2023-04-03T14:48:21;7.60;;;3.20;;
48987;SDS011;34799;51.440;-2.534;2023-04-03T14:50:58;7.80;;;3.63;;
48987;SDS011;34799;51.440;-2.534;2023-04-03T14:53:33;6.28;;;3.03;;
48987;SDS011;34799;51.440;-2.534;2023-04-03T14:56:09;8.20;;;3.30;;
48987;SDS011;34799;51.440;-2.534;2023-04-03T14:59:14;7.85;;;2.88;;
48987;SDS011;34799;51.440;-2.534;2023-04-03T15:02:05;9.02;;;3.13;;
48987;SDS011;34799;51.440;-2.534;2023-04-03T15:05:02;10.60;;;3.00;;
48987;SDS011;34799;51.440;-2.534;2023-04-03T15:11:15;7.63;;;2.63;;
48987;SDS011;34799;51.440;-2.534;2023-04-03T15:14:04;6.90;;;3.20;;
48987;SDS011;34799;51.440;-2.534;2023-04-03T15:16:36;10.57;;;3.95;;
48987;SDS011;34799;51.440;-2.534;2023-04-03T15:19:04;7.32;;;3.30;;
48987;SDS011;34799;51.440;-2.534;2023-04-03T15:21:35;6.28;;;3.50;;
48987;SDS011;34799;51.440;-2.534;2023-04-03T15:24:04;6.18;;;3.15;;
48987;SDS011;34799;51.440;-2.534;2023-04-03T15:30:04;5.43;;;2.97;;
48987;SDS011;34799;51.440;-2.534;2023-04-03T15:32:35;8.07;;;3.28;;
48987;SDS011;34799;51.440;-2.534;2023-04-03T15:35:04;6.63;;;2.67;;
48987;SDS011;34799;51.440;-2.534;2023-04-03T15:37:36;8.93;;;3.85;;
48987;SDS011;34799;51.440;-2.534;2023-04-03T15:40:04;6.70;;;3.13;;
48987;SDS011;34799;51.440;-2.534;2023-04-03T15:42:41;9.98;;;3.60;;
48987;SDS011;34799;51.440;-2.534;2023-04-03T15:51:40;7.95;;;3.00;;
48987;SDS011;34799;51.440;-2.534;2023-04-03T15:57:09;4.53;;;2.67;;
48987;SDS011;34799;51.440;-2.534;2023-04-03T16:00:30;8.95;;;2.90;;
48987;SDS011;34799;51.440;-2.534;2023-04-03T16:03:10;7.15;;;3.70;;
48987;SDS011;34799;51.440;-2.534;2023-04-03T16:06:22;10.70;;;3.17;;
48987;SDS011;34799;51.440;-2.534;2023-04-03T16:09:30;5.55;;;3.10;;
48987;SDS011;34799;51.440;-2.534;2023-04-03T16:12:25;9.13;;;3.42;;
48987;SDS011;34799;51.440;-2.534;2023-04-03T16:16:01;6.47;;;2.92;;
48987;SDS011;34799;51.440;-2.534;2023-04-03T16:18:54;6.68;;;3.72;;
48987;SDS011;34799;51.440;-2.534;2023-04-03T16:21:33;8.25;;;3.10;;
48987;SDS011;34799;51.440;-2.534;2023-04-03T16:24:25;7.78;;;3.70;;
48987;SDS011;34799;51.440;-2.534;2023-04-03T16:26:58;6.80;;;2.88;;
48987;SDS011;34799;51.440;-2.534;2023-04-03T16:29:26;5.82;;;3.05;;
48987;SDS011;34799;51.440;-2.534;2023-04-03T16:31:56;6.47;;;2.88;;
48987;SDS011;34799;51.440;-2.534;2023-04-03T16:34:27;9.05;;;3.13;;
48987;SDS011;34799;51.440;-2.534;2023-04-03T16:37:15;7.20;;;2.67;;
48987;SDS011;34799;51.440;-2.534;2023-04-03T16:39:54;8.52;;;2.92;;
48987;SDS011;34799;51.440;-2.534;2023-04-03T16:42:22;7.57;;;3.00;;
48987;SDS011;34799;51.440;-2.534;2023-04-03T16:45:53;8.43;;;2.83;;
48987;SDS011;34799;51.440;-2.534;2023-04-03T16:48:37;7.85;;;3.63;;
48987;SDS011;34799;51.440;-2.534;2023-04-03T16:51:23;6.65;;;3.40;;
48987;SDS011;34799;51.440;-2.534;2023-04-03T16:54:05;6.72;;;2.75;;
48987;SDS011;34799;51.440;-2.534;2023-04-03T16:56:38;8.95;;;3.75;;
48987;SDS011;34799;51.440;-2.534;2023-04-03T16:59:23;6.82;;;2.85;;
48987;SDS011;34799;51.440;-2.534;2023-04-03T17:01:53;8.02;;;3.67;;
48987;SDS011;34799;51.440;-2.534;2023-04-03T17:04:25;6.60;;;2.63;;
48987;SDS011;34799;51.440;-2.534;2023-04-03T17:06:56;6.70;;;2.72;;
48987;SDS011;34799;51.440;-2.534;2023-04-03T17:09:25;6.95;;;2.53;;
48987;SDS011;34799;51.440;-2.534;2023-04-03T17:11:53;4.72;;;2.40;;
48987;SDS011;34799;51.440;-2.534;2023-04-03T17:14:21;8.38;;;2.65;;
48987;SDS011;34799;51.440;-2.534;2023-04-03T17:16:49;6.55;;;2.65;;
48987;SDS011;34799;51.440;-2.534;2023-04-03T17:19:24;9.88;;;3.55;;
48987;SDS011;34799;51.440;-2.534;2023-04-03T17:21:57;6.82;;;2.88;;
48987;SDS011;34799;51.440;-2.534;2023-04-03T17:24:29;9.32;;;2.60;;
48987;SDS011;34799;51.440;-2.534;2023-04-03T17:26:57;4.55;;;2.30;;
48987;SDS011;34799;51.440;-2.534;2023-04-03T17:29:29;5.55;;;2.42;;
48987;SDS011;34799;51.440;-2.534;2023-04-03T17:31:58;5.95;;;2.63;;
48987;SDS011;34799;51.440;-2.534;2023-04-03T17:34:25;7.97;;;2.63;;
48987;SDS011;34799;51.440;-2.534;2023-04-03T17:36:58;7.60;;;2.78;;
48987;SDS011;34799;51.440;-2.534;2023-04-03T17:39:31;5.47;;;2.58;;
48987;SDS011;34799;51.440;-2.534;2023-04-03T17:42:01;9.10;;;2.10;;
48987;SDS011;34799;51.440;-2.534;2023-04-03T17:44:29;6.22;;;2.05;;
48987;SDS011;34799;51.440;-2.534;2023-04-03T17:47:08;5.70;;;2.28;;
48987;SDS011;34799;51.440;-2.534;2023-04-03T17:49:36;6.28;;;2.00;;
48987;SDS011;34799;51.440;-2.534;2023-04-03T17:52:04;7.18;;;2.20;;